Time,TemperatureF,DewpointF,PressureIn,WindDirection,WindDirectionDegrees,WindSpeedMPH,WindSpeedGustMPH,Humidity,HourlyPrecipIn,Conditions,Clouds,dailyrainin,SolarRadiationWatts/m^2,SoftwareType,DateUTC
2013-04-25 00:01:00,32.0,32.0,-100.00,WNW,286,0.0,2.0,100,0.00,,,0.04,0.000000,,2013-04-25 08:01:00,
2013-04-25 00:11:00,32.0,32.0,-100.00,WNW,286,0.0,2.0,100,0.00,,,0.04,0.000000,,2013-04-25 08:11:00,
2013-04-25 00:21:00,32.0,32.0,-100.00,WNW,286,0.0,2.0,100,0.00,,,0.04,0.000000,,2013-04-25 08:21:00,
2013-04-25 00:42:00,32.0,32.0,-100.00,WNW,301,0.0,1.0,100,0.00,,,0.04,0.000000,,2013-04-25 08:42:00,
2013-04-25 00:52:00,32.0,32.0,-100.00,WNW,301,0.0,1.0,100,0.00,,,0.04,0.000000,,2013-04-25 08:52:00,
2013-04-25 01:01:00,32.0,32.0,-100.00,WNW,301,0.0,1.0,100,0.00,,,0.04,0.000000,,2013-04-25 09:01:00,
2013-04-25 01:11:00,32.0,32.0,-100.00,WNW,301,0.0,1.0,100,0.00,,,0.04,0.000000,,2013-04-25 09:11:00,
2013-04-25 01:21:00,32.0,32.0,-100.00,WNW,301,0.0,1.0,100,0.00,,,0.04,0.000000,,2013-04-25 09:21:00,
2013-04-25 01:42:00,32.0,32.0,-100.00,North,3,0.0,0.0,100,0.01,,,0.05,0.000000,,2013-04-25 09:42:00,
2013-04-25 01:52:00,32.0,32.0,-100.00,North,3,0.0,0.0,100,0.01,,,0.05,0.000000,,2013-04-25 09:52:00,
2013-04-25 02:02:00,32.0,32.0,-100.00,North,3,0.0,0.0,100,0.01,,,0.05,0.000000,,2013-04-25 10:02:00,
2013-04-25 02:12:00,32.0,32.0,-100.00,North,3,0.0,0.0,100,0.01,,,0.05,0.000000,,2013-04-25 10:12:00,
2013-04-25 02:22:00,32.0,32.0,-100.00,North,3,0.0,0.0,100,0.01,,,0.05,0.000000,,2013-04-25 10:22:00,
2013-04-25 02:42:00,32.0,32.0,-100.00,North,2,0.0,0.0,100,-99.99,,,0.03,0.000000,,2013-04-25 10:42:00,
2013-04-25 02:53:00,32.0,32.0,-100.00,North,2,0.0,0.0,100,-99.99,,,0.03,0.000000,,2013-04-25 10:53:00,
2013-04-25 03:02:00,32.0,32.0,-100.00,North,2,0.0,0.0,100,-99.99,,,0.03,0.000000,,2013-04-25 11:02:00,
2013-04-25 03:12:00,32.0,32.0,-100.00,North,2,0.0,0.0,100,-99.99,,,0.03,0.000000,,2013-04-25 11:12:00,
2013-04-25 03:21:00,32.0,32.0,-100.00,North,2,0.0,0.0,100,-99.99,,,0.03,0.000000,,2013-04-25 11:21:00,
2013-04-25 03:42:00,32.0,32.0,-100.00,North,7,0.0,0.0,100,-99.99,,,0.00,0.000000,,2013-04-25 11:42:00,
2013-04-25 03:52:00,32.0,32.0,-100.00,North,7,0.0,0.0,100,-99.99,,,0.00,0.000000,,2013-04-25 11:52:00,
2013-04-25 04:01:00,32.0,32.0,-100.00,North,7,0.0,0.0,100,-99.99,,,0.00,0.000000,,2013-04-25 12:01:00,
2013-04-25 04:12:00,32.0,32.0,-100.00,North,7,0.0,0.0,100,-99.99,,,0.00,0.000000,,2013-04-25 12:12:00,
2013-04-25 04:21:00,32.0,32.0,-100.00,North,7,0.0,0.0,100,-99.99,,,0.00,0.000000,,2013-04-25 12:21:00,
2013-04-25 04:42:00,32.0,32.0,-100.00,NNE,15,0.0,0.0,100,0.02,,,0.02,0.000000,,2013-04-25 12:42:00,
2013-04-25 04:52:00,32.0,32.0,-100.00,NNE,15,0.0,0.0,100,0.02,,,0.02,0.000000,,2013-04-25 12:52:00,
2013-04-25 05:02:00,32.0,32.0,-100.00,NNE,15,0.0,0.0,100,0.02,,,0.02,0.000000,,2013-04-25 13:02:00,
2013-04-25 05:11:00,32.0,32.0,-100.00,NNE,15,0.0,0.0,100,0.02,,,0.02,0.000000,,2013-04-25 13:11:00,
2013-04-25 05:21:00,32.0,32.0,-100.00,NNE,15,0.0,0.0,100,0.02,,,0.02,0.000000,,2013-04-25 13:21:00,
2013-04-25 05:42:00,32.0,32.0,-100.00,North,7,0.0,3.0,100,0.00,,,-99.99,0.000000,,2013-04-25 13:42:00,
2013-04-25 05:52:00,32.0,32.0,-100.00,North,7,0.0,3.0,100,0.00,,,-99.99,0.000000,,2013-04-25 13:52:00,
2013-04-25 06:01:00,32.0,32.0,-100.00,North,7,0.0,3.0,100,0.00,,,-99.99,0.000000,,2013-04-25 14:01:00,
2013-04-25 06:11:00,32.0,32.0,-100.00,North,7,0.0,3.0,100,0.00,,,-99.99,0.000000,,2013-04-25 14:11:00,
2013-04-25 06:21:00,32.0,32.0,-100.00,North,7,0.0,3.0,100,0.00,,,-99.99,0.000000,,2013-04-25 14:21:00,
2013-04-25 06:42:00,32.0,32.0,-100.00,North,6,0.0,2.0,99,-99.99,,,-99.99,2.000000,,2013-04-25 14:42:00,
2013-04-25 06:52:00,32.0,32.0,-100.00,North,6,0.0,2.0,99,-99.99,,,-99.99,2.000000,,2013-04-25 14:52:00,
2013-04-25 07:02:00,32.0,32.0,-100.00,North,6,0.0,2.0,99,-99.99,,,-99.99,2.000000,,2013-04-25 15:02:00,
2013-04-25 07:11:00,32.0,32.0,-100.00,North,6,0.0,2.0,99,-99.99,,,-99.99,2.000000,,2013-04-25 15:11:00,
2013-04-25 07:21:00,32.0,32.0,-100.00,North,6,0.0,2.0,99,-99.99,,,-99.99,2.000000,,2013-04-25 15:21:00,
2013-04-25 07:24:00,32.0,32.0,-100.00,North,359,0.0,2.0,99,0.00,,,0.00,11.000000,,2013-04-25 15:24:00,
2013-04-25 07:42:00,32.0,32.0,-100.00,North,359,0.0,2.0,99,0.00,,,0.00,11.000000,,2013-04-25 15:42:00,
2013-04-25 07:53:00,32.0,32.0,-100.00,North,359,0.0,2.0,99,0.00,,,0.00,11.000000,,2013-04-25 15:53:00,
2013-04-25 08:02:00,32.0,32.0,-100.00,North,359,0.0,2.0,99,0.00,,,0.00,11.000000,,2013-04-25 16:02:00,
2013-04-25 08:13:00,32.0,32.0,-100.00,North,359,0.0,2.0,99,0.00,,,0.00,11.000000,,2013-04-25 16:13:00,
2013-04-25 08:43:00,32.0,32.0,-100.00,North,358,0.0,4.0,99,0.01,,,0.00,29.000000,,2013-04-25 16:43:00,
2013-04-25 08:52:00,32.0,32.0,-100.00,North,358,0.0,4.0,99,0.01,,,0.00,29.000000,,2013-04-25 16:52:00,
2013-04-25 09:02:00,32.0,32.0,-100.00,North,358,0.0,4.0,99,0.01,,,0.00,29.000000,,2013-04-25 17:02:00,
2013-04-25 09:11:00,32.0,32.0,-100.00,North,358,0.0,4.0,99,0.01,,,0.00,29.000000,,2013-04-25 17:11:00,
2013-04-25 09:22:00,32.0,32.0,-100.00,North,358,0.0,4.0,99,0.01,,,0.00,29.000000,,2013-04-25 17:22:00,
2013-04-25 09:42:00,32.0,32.0,-100.00,North,6,0.0,1.0,98,-99.99,,,-99.99,54.000000,,2013-04-25 17:42:00,
2013-04-25 09:53:00,32.0,32.0,-100.00,North,6,0.0,1.0,98,-99.99,,,-99.99,54.000000,,2013-04-25 17:53:00,
2013-04-25 10:01:00,32.0,32.0,-100.00,North,6,0.0,1.0,98,-99.99,,,-99.99,54.000000,,2013-04-25 18:01:00,
2013-04-25 10:11:00,32.0,32.0,-100.00,North,6,0.0,1.0,98,-99.99,,,-99.99,54.000000,,2013-04-25 18:11:00,
2013-04-25 10:21:00,32.0,32.0,-100.00,North,6,0.0,1.0,98,-99.99,,,-99.99,54.000000,,2013-04-25 18:21:00,
2013-04-25 10:43:00,34.0,32.0,-100.00,North,10,0.0,3.0,94,0.03,,,0.03,109.000000,,2013-04-25 18:43:00,
2013-04-25 10:53:00,34.0,32.0,-100.00,North,10,0.0,3.0,94,0.03,,,0.03,109.000000,,2013-04-25 18:53:00,
2013-04-25 11:01:00,34.0,32.0,-100.00,North,10,0.0,3.0,94,0.03,,,0.03,109.000000,,2013-04-25 19:01:00,
2013-04-25 11:12:00,34.0,32.0,-100.00,North,10,0.0,3.0,94,0.03,,,0.03,109.000000,,2013-04-25 19:12:00,
2013-04-25 11:21:00,34.0,32.0,-100.00,North,10,0.0,3.0,94,0.03,,,0.03,109.000000,,2013-04-25 19:21:00,
2013-04-25 11:42:00,36.0,33.0,-100.00,NE,35,0.0,1.0,90,0.01,,,0.02,130.000000,,2013-04-25 19:42:00,
2013-04-25 11:52:00,36.0,33.0,-100.00,NE,35,0.0,1.0,90,0.01,,,0.02,130.000000,,2013-04-25 19:52:00,
2013-04-25 12:01:00,36.0,33.0,-100.00,NE,35,0.0,1.0,90,0.01,,,0.02,130.000000,,2013-04-25 20:01:00,
2013-04-25 12:11:00,36.0,33.0,-100.00,NE,35,0.0,1.0,90,0.01,,,0.02,130.000000,,2013-04-25 20:11:00,
2013-04-25 12:21:00,36.0,33.0,-100.00,NE,35,0.0,1.0,90,0.01,,,0.02,130.000000,,2013-04-25 20:21:00,
2013-04-25 12:43:00,34.0,31.0,-100.00,East,86,0.0,2.0,91,0.00,,,0.03,140.000000,,2013-04-25 20:43:00,
2013-04-25 12:52:00,34.0,31.0,-100.00,East,86,0.0,2.0,91,0.00,,,0.03,140.000000,,2013-04-25 20:52:00,
2013-04-25 13:01:00,34.0,31.0,-100.00,East,86,0.0,2.0,91,0.00,,,0.03,140.000000,,2013-04-25 21:01:00,
2013-04-25 13:11:00,34.0,31.0,-100.00,East,86,0.0,2.0,91,0.00,,,0.03,140.000000,,2013-04-25 21:11:00,
2013-04-25 13:21:00,34.0,31.0,-100.00,East,86,0.0,2.0,91,0.00,,,0.03,140.000000,,2013-04-25 21:21:00,
2013-04-25 13:42:00,36.0,33.0,-100.00,ESE,122,0.0,1.0,89,0.03,,,0.07,172.000000,,2013-04-25 21:42:00,
2013-04-25 13:53:00,36.0,33.0,-100.00,ESE,122,0.0,1.0,89,0.03,,,0.07,172.000000,,2013-04-25 21:53:00,
2013-04-25 14:02:00,36.0,33.0,-100.00,ESE,122,0.0,1.0,89,0.03,,,0.07,172.000000,,2013-04-25 22:02:00,
2013-04-25 14:12:00,36.0,33.0,-100.00,ESE,122,0.0,1.0,89,0.03,,,0.07,172.000000,,2013-04-25 22:12:00,
2013-04-25 14:22:00,36.0,33.0,-100.00,ESE,122,0.0,1.0,89,0.03,,,0.07,172.000000,,2013-04-25 22:22:00,
2013-04-25 14:42:00,36.0,33.0,-100.00,SE,144,1.0,2.0,90,-99.99,,,0.00,195.000000,,2013-04-25 22:42:00,
2013-04-25 14:53:00,36.0,33.0,-100.00,SE,144,1.0,2.0,90,-99.99,,,0.00,195.000000,,2013-04-25 22:53:00,
2013-04-25 15:02:00,36.0,33.0,-100.00,SE,144,1.0,2.0,90,-99.99,,,0.00,195.000000,,2013-04-25 23:02:00,
2013-04-25 15:12:00,36.0,33.0,-100.00,SE,144,1.0,2.0,90,-99.99,,,0.00,195.000000,,2013-04-25 23:12:00,
2013-04-25 15:21:00,36.0,33.0,-100.00,SE,144,1.0,2.0,90,-99.99,,,0.00,195.000000,,2013-04-25 23:21:00,
2013-04-25 15:42:00,36.0,33.0,-100.00,SE,132,1.0,2.0,89,-99.99,,,-99.99,201.000000,,2013-04-25 23:42:00,
2013-04-25 15:52:00,36.0,33.0,-100.00,SE,132,1.0,2.0,89,-99.99,,,-99.99,201.000000,,2013-04-25 23:52:00,
2013-04-25 16:01:00,36.0,33.0,-100.00,SE,132,1.0,2.0,89,-99.99,,,-99.99,201.000000,,2013-04-26 00:01:00,
2013-04-25 16:11:00,36.0,33.0,-100.00,SE,132,1.0,2.0,89,-99.99,,,-99.99,201.000000,,2013-04-26 00:11:00,
2013-04-25 16:21:00,36.0,33.0,-100.00,SE,132,1.0,2.0,89,-99.99,,,-99.99,201.000000,,2013-04-26 00:21:00,
2013-04-25 16:42:00,36.0,33.0,-100.00,SE,124,1.0,2.0,90,0.01,,,0.01,171.000000,,2013-04-26 00:42:00,
2013-04-25 16:52:00,36.0,33.0,-100.00,SE,124,1.0,2.0,90,0.01,,,0.01,171.000000,,2013-04-26 00:52:00,
2013-04-25 17:01:00,36.0,33.0,-100.00,SE,124,1.0,2.0,90,0.01,,,0.01,171.000000,,2013-04-26 01:01:00,
2013-04-25 17:11:00,36.0,33.0,-100.00,SE,124,1.0,2.0,90,0.01,,,0.01,171.000000,,2013-04-26 01:11:00,
2013-04-25 17:21:00,36.0,33.0,-100.00,SE,124,1.0,2.0,90,0.01,,,0.01,171.000000,,2013-04-26 01:21:00,
2013-04-25 17:42:00,34.0,32.0,-100.00,SE,144,0.0,1.0,92,0.00,,,0.01,136.000000,,2013-04-26 01:42:00,
2013-04-25 17:52:00,34.0,32.0,-100.00,SE,144,0.0,1.0,92,0.00,,,0.01,136.000000,,2013-04-26 01:52:00,
2013-04-25 18:01:00,34.0,32.0,-100.00,SE,144,0.0,1.0,92,0.00,,,0.01,136.000000,,2013-04-26 02:01:00,
2013-04-25 18:11:00,34.0,32.0,-100.00,SE,144,0.0,1.0,92,0.00,,,0.01,136.000000,,2013-04-26 02:11:00,
2013-04-25 18:21:00,34.0,32.0,-100.00,SE,144,0.0,1.0,92,0.00,,,0.01,136.000000,,2013-04-26 02:21:00,
2013-04-25 18:42:00,34.0,32.0,-100.00,ESE,111,0.0,1.0,94,0.00,,,-99.99,89.000000,,2013-04-26 02:42:00,
2013-04-25 18:52:00,34.0,32.0,-100.00,ESE,111,0.0,1.0,94,0.00,,,-99.99,89.000000,,2013-04-26 02:52:00,
2013-04-25 19:01:00,34.0,32.0,-100.00,ESE,111,0.0,1.0,94,0.00,,,-99.99,89.000000,,2013-04-26 03:01:00,
2013-04-25 19:11:00,34.0,32.0,-100.00,ESE,111,0.0,1.0,94,0.00,,,-99.99,89.000000,,2013-04-26 03:11:00,
2013-04-25 19:21:00,34.0,32.0,-100.00,ESE,111,0.0,1.0,94,0.00,,,-99.99,89.000000,,2013-04-26 03:21:00,
2013-04-25 19:43:00,34.0,33.0,-100.00,South,182,0.0,1.0,96,0.00,,,-99.99,55.000000,,2013-04-26 03:43:00,
2013-04-25 19:53:00,34.0,33.0,-100.00,South,182,0.0,1.0,96,0.00,,,-99.99,55.000000,,2013-04-26 03:53:00,
2013-04-25 20:02:00,34.0,33.0,-100.00,South,182,0.0,1.0,96,0.00,,,-99.99,55.000000,,2013-04-26 04:02:00,
2013-04-25 20:12:00,34.0,33.0,-100.00,South,182,0.0,1.0,96,0.00,,,-99.99,55.000000,,2013-04-26 04:12:00,
2013-04-25 20:22:00,34.0,33.0,-100.00,South,182,0.0,1.0,96,0.00,,,-99.99,55.000000,,2013-04-26 04:22:00,
2013-04-25 20:43:00,34.0,33.0,-100.00,SE,131,0.0,1.0,98,-99.99,,,-99.99,28.000000,,2013-04-26 04:43:00,
2013-04-25 20:53:00,34.0,33.0,-100.00,SE,131,0.0,1.0,98,-99.99,,,-99.99,28.000000,,2013-04-26 04:53:00,
2013-04-25 21:02:00,34.0,33.0,-100.00,SE,131,0.0,1.0,98,-99.99,,,-99.99,28.000000,,2013-04-26 05:02:00,
2013-04-25 21:12:00,34.0,33.0,-100.00,SE,131,0.0,1.0,98,-99.99,,,-99.99,28.000000,,2013-04-26 05:12:00,
2013-04-25 21:22:00,34.0,33.0,-100.00,SE,131,0.0,1.0,98,-99.99,,,-99.99,28.000000,,2013-04-26 05:22:00,
2013-04-25 21:42:00,32.0,32.0,-100.00,West,260,0.0,1.0,99,0.01,,,0.00,6.000000,,2013-04-26 05:42:00,
2013-04-25 21:52:00,32.0,32.0,-100.00,West,260,0.0,1.0,99,0.01,,,0.00,6.000000,,2013-04-26 05:52:00,
2013-04-25 22:02:00,32.0,32.0,-100.00,West,260,0.0,1.0,99,0.01,,,0.00,6.000000,,2013-04-26 06:02:00,
2013-04-25 22:11:00,32.0,32.0,-100.00,West,260,0.0,1.0,99,0.01,,,0.00,6.000000,,2013-04-26 06:11:00,
2013-04-25 22:21:00,32.0,32.0,-100.00,West,260,0.0,1.0,99,0.01,,,0.00,6.000000,,2013-04-26 06:21:00,
2013-04-25 22:42:00,32.0,32.0,-100.00,NNE,16,0.0,2.0,100,-99.99,,,-99.99,0.000000,,2013-04-26 06:42:00,
2013-04-25 22:52:00,32.0,32.0,-100.00,NNE,16,0.0,2.0,100,-99.99,,,-99.99,0.000000,,2013-04-26 06:52:00,
2013-04-25 23:01:00,32.0,32.0,-100.00,NNE,16,0.0,2.0,100,-99.99,,,-99.99,0.000000,,2013-04-26 07:01:00,
2013-04-25 23:11:00,32.0,32.0,-100.00,NNE,16,0.0,2.0,100,-99.99,,,-99.99,0.000000,,2013-04-26 07:11:00,
2013-04-25 23:21:00,32.0,32.0,-100.00,NNE,16,0.0,2.0,100,-99.99,,,-99.99,0.000000,,2013-04-26 07:21:00,
2013-04-25 23:42:00,32.0,32.0,-100.00,North,354,2.0,4.0,98,0.00,,,-99.99,0.000000,,2013-04-26 07:42:00,
2013-04-25 23:52:00,32.0,32.0,-100.00,North,354,2.0,4.0,98,0.00,,,-99.99,0.000000,,2013-04-26 07:52:00,